Time;durP1;ratioP1;P1;durP2;ratioP2;P2;SDS_P1;SDS_P2;PMS_P1;PMS_P2;Temp;Humidity;BMP_temperature;BMP_pressure;BME280_temperature;BME280_humidity;BME280_pressure;Samples;Min_cycle;Max_cycle;Signal;HPM_P1;HPM_P2
2021/10/31 00:01:15;;;;;;;10.27;5.88;;;;;;;12.48;52.43;99904.22;4880126;29;20061;-62
2021/10/31 00:03:44;;;;;;;10.57;5.68;;;;;;;12.51;52.11;99901.66;4880077;29;20060;-62
2021/10/31 00:06:18;;;;;;;9.70;5.00;;;;;;;12.53;51.99;99899.94;4879969;29;20053;-62
2021/10/31 00:08:47;;;;;;;9.38;5.35;;;;;;;12.56;51.32;99894.78;4880025;29;20515;-62
2021/10/31 00:11:20;;;;;;;9.27;4.80;;;;;;;12.60;50.96;99897.31;4879744;29;20143;-61
2021/10/31 00:13:53;;;;;;;10.48;5.60;;;;;;;12.62;50.98;99899.91;4879953;29;20091;-62
2021/10/31 00:16:26;;;;;;;9.98;4.63;;;;;;;12.64;50.91;99908.41;4879069;29;20056;-62
2021/10/31 00:18:56;;;;;;;10.50;5.10;;;;;;;12.62;50.45;99905.84;4879848;29;20061;-61
2021/10/31 00:21:28;;;;;;;9.15;4.80;;;;;;;12.68;50.64;99902.41;4880176;29;20116;-62
2021/10/31 00:24:01;;;;;;;11.27;5.15;;;;;;;12.67;50.56;99903.25;4879805;29;20085;-62
2021/10/31 00:26:33;;;;;;;8.68;5.10;;;;;;;12.65;50.31;99899.84;4880110;29;20105;-62
2021/10/31 00:29:06;;;;;;;9.60;5.28;;;;;;;12.63;50.16;99899.03;4879725;29;20049;-62
2021/10/31 00:31:39;;;;;;;19.90;4.88;;;;;;;12.69;49.90;99901.56;4880154;29;20048;-62
2021/10/31 00:34:15;;;;;;;9.68;5.20;;;;;;;12.66;49.75;99899.00;4880487;29;20396;-62
2021/10/31 00:36:47;;;;;;;10.55;5.10;;;;;;;12.67;49.93;99893.00;4880020;29;20060;-62
2021/10/31 00:39:23;;;;;;;9.23;5.03;;;;;;;12.57;49.85;99876.03;4879701;29;20128;-62
2021/10/31 00:41:56;;;;;;;9.88;4.80;;;;;;;12.64;49.95;99904.13;4879903;29;20508;-62
2021/10/31 00:44:25;;;;;;;8.80;4.82;;;;;;;12.63;49.60;99896.47;4880211;29;20448;-62
2021/10/31 00:46:56;;;;;;;8.35;5.00;;;;;;;12.63;49.64;99884.50;4879599;29;20041;-62
2021/10/31 00:49:25;;;;;;;9.23;4.35;;;;;;;12.60;49.50;99896.47;4879882;29;20048;-62
2021/10/31 00:52:00;;;;;;;9.10;4.70;;;;;;;12.62;49.48;99879.41;4879389;29;20449;-62
2021/10/31 00:54:33;;;;;;;8.95;4.25;;;;;;;12.65;49.46;99892.19;4879588;29;20061;-61
2021/10/31 00:57:08;;;;;;;8.38;4.65;;;;;;;12.62;49.06;99889.66;4879857;29;20081;-61
2021/10/31 00:59:41;;;;;;;8.52;4.68;;;;;;;12.61;49.09;99882.81;4879517;29;20053;-61
2021/10/31 01:02:16;;;;;;;8.68;5.15;;;;;;;12.65;49.16;99880.22;4879454;29;20056;-61
2021/10/31 01:04:51;;;;;;;6.95;3.83;;;;;;;12.67;48.87;99887.88;4879531;29;20161;-62
2021/10/31 01:07:56;;;;;;;10.38;4.55;;;;;;;12.69;48.64;99893.88;4879708;29;20053;-61
2021/10/31 01:11:15;;;;;;;7.72;4.20;;;;;;;12.72;48.47;99886.16;4822337;29;20054;-62
2021/10/31 01:14:05;;;;;;;7.30;3.95;;;;;;;12.72;48.40;99875.91;4822501;29;20144;-61
2021/10/31 01:17:04;;;;;;;7.38;4.28;;;;;;;12.72;48.13;99875.91;4821728;29;20141;-62
2021/10/31 01:19:50;;;;;;;7.07;3.85;;;;;;;12.73;48.11;99877.63;4768186;30;20496;-61
2021/10/31 01:22:35;;;;;;;7.10;3.90;;;;;;;12.75;48.16;99884.44;4768387;30;20048;-62
2021/10/31 01:25:27;;;;;;;7.38;4.35;;;;;;;12.77;47.86;99879.31;4771517;30;20388;-62
2021/10/31 01:28:10;;;;;;;7.72;4.03;;;;;;;12.76;47.74;99877.63;4777237;29;20048;-62
2021/10/31 01:30:56;;;;;;;8.32;4.32;;;;;;;12.82;47.63;99871.56;4825231;29;20531;-62
2021/10/31 01:33:45;;;;;;;8.82;4.50;;;;;;;12.79;47.72;99872.44;4825601;29;20197;-62
2021/10/31 01:36:28;;;;;;;6.93;3.80;;;;;;;12.79;47.66;99881.00;4825568;29;20125;-62
2021/10/31 01:39:09;;;;;;;9.15;4.53;;;;;;;12.84;47.61;99880.97;4825151;29;20149;-61
2021/10/31 01:41:49;;;;;;;7.60;3.67;;;;;;;12.82;47.54;99872.44;4825171;29;20574;-62
2021/10/31 01:44:26;;;;;;;7.15;3.95;;;;;;;12.84;47.36;99865.59;4845991;29;20144;-62
2021/10/31 01:47:07;;;;;;;8.48;3.85;;;;;;;12.87;47.20;99865.56;4863948;29;20569;-61
2021/10/31 01:49:48;;;;;;;7.80;4.25;;;;;;;12.84;46.67;99870.72;4864132;29;20084;-62
2021/10/31 01:52:34;;;;;;;7.50;4.07;;;;;;;12.85;47.25;99872.44;4863700;29;20057;-62
2021/10/31 01:55:12;;;;;;;8.48;4.65;;;;;;;12.85;47.32;99872.44;4863755;29;20046;-62
2021/10/31 01:57:48;;;;;;;8.20;4.55;;;;;;;12.87;47.27;99873.25;4863704;29;20060;-62
2021/10/31 02:00:20;;;;;;;7.75;4.20;;;;;;;12.82;47.58;99867.31;4863576;29;20053;-61
2021/10/31 02:02:54;;;;;;;8.30;3.97;;;;;;;12.72;48.46;99874.22;4863597;29;20069;-62
2021/10/31 02:05:33;;;;;;;9.07;4.75;;;;;;;12.65;48.63;99866.56;4863808;29;20050;-61
2021/10/31 02:08:10;;;;;;;7.45;3.80;;;;;;;12.47;49.12;99867.53;4863536;29;20064;-61
2021/10/31 02:10:44;;;;;;;8.07;5.00;;;;;;;12.40;49.13;99875.25;4863421;29;20117;-62
2021/10/31 02:13:16;;;;;;;7.63;4.75;;;;;;;12.20;49.77;99877.03;4863371;29;20088;-62
2021/10/31 02:15:52;;;;;;;8.10;4.68;;;;;;;12.06;50.34;99877.97;4869814;29;20091;-61
2021/10/31 02:18:24;;;;;;;8.55;4.65;;;;;;;11.77;51.18;99869.53;4882134;29;20064;-61
2021/10/31 02:20:59;;;;;;;8.82;4.53;;;;;;;11.55;51.71;99870.38;4881773;29;20064;-62
2021/10/31 02:23:31;;;;;;;11.63;5.15;;;;;;;11.34;52.35;99863.63;4882066;29;20064;-62
2021/10/31 02:26:03;;;;;;;11.88;5.43;;;;;;;11.12;52.78;99856.81;4881766;29;20057;-62
2021/10/31 02:28:33;;;;;;;11.45;5.90;;;;;;;10.82;53.09;99871.25;4881675;29;20060;-62
2021/10/31 02:31:02;;;;;;;11.27;6.03;;;;;;;10.50;54.23;99869.50;4881744;29;20392;-62
2021/10/31 02:33:39;;;;;;;10.63;6.60;;;;;;;10.38;54.36;99864.38;4881826;29;20506;-62
2021/10/31 02:36:11;;;;;;;12.88;6.50;;;;;;;10.10;55.88;99862.53;4881294;29;20080;-61
2021/10/31 02:38:45;;;;;;;13.18;6.22;;;;;;;9.91;56.24;99860.75;4881533;29;20109;-61
2021/10/31 02:41:18;;;;;;;11.10;6.40;;;;;;;9.76;56.50;99865.78;4881687;29;20052;-61
2021/10/31 02:43:50;;;;;;;13.02;6.00;;;;;;;9.71;56.83;99858.09;4881396;29;20109;-61
2021/10/31 02:46:23;;;;;;;13.10;6.13;;;;;;;9.67;56.98;99870.81;4881385;29;20081;-61
2021/10/31 02:48:56;;;;;;;11.52;5.68;;;;;;;9.54;57.64;99874.97;4881330;29;20048;-62
2021/10/31 02:51:42;;;;;;;11.48;5.60;;;;;;;9.44;58.84;99878.31;4881124;29;20049;-62
2021/10/31 02:54:22;;;;;;;11.63;6.22;;;;;;;9.32;58.46;99884.16;4881255;29;20073;-62
2021/10/31 02:57:03;;;;;;;10.90;5.72;;;;;;;9.24;59.31;99890.03;4881156;29;20056;-62
2021/10/31 02:59:44;;;;;;;10.10;5.30;;;;;;;9.31;58.72;99892.63;4881428;29;20515;-62
2021/10/31 03:02:17;;;;;;;10.18;5.38;;;;;;;9.43;59.01;99886.78;4881347;29;20484;-61
2021/10/31 03:04:52;;;;;;;9.75;5.55;;;;;;;9.87;59.29;99881.97;4881016;29;20132;-61
2021/10/31 03:07:24;;;;;;;10.48;5.55;;;;;;;10.27;57.86;99883.88;4881271;29;20479;-61
2021/10/31 03:09:58;;;;;;;9.65;5.43;;;;;;;10.60;57.31;99886.53;4881234;29;20057;-62
2021/10/31 03:12:30;;;;;;;11.93;5.60;;;;;;;10.83;56.29;99883.16;4881043;29;20560;-62
2021/10/31 03:15:00;;;;;;;9.48;5.15;;;;;;;10.98;55.94;99878.09;4880591;29;20100;-62
2021/10/31 03:17:32;;;;;;;10.73;5.70;;;;;;;11.00;55.87;99877.22;4881149;29;20059;-62
2021/10/31 03:20:05;;;;;;;9.90;5.40;;;;;;;10.63;56.68;99883.97;4881111;29;20053;-62
2021/10/31 03:22:38;;;;;;;11.88;6.03;;;;;;;10.42;56.78;99896.69;4880645;29;20097;-61
2021/10/31 03:25:12;;;;;;;10.77;5.95;;;;;;;10.16;56.88;99893.19;4881034;29;20128;-62
2021/10/31 03:27:44;;;;;;;12.38;6.10;;;;;;;10.01;57.20;99893.94;4880986;29;20053;-61
2021/10/31 03:30:17;;;;;;;9.90;5.82;;;;;;;9.78;57.75;99892.13;4880629;29;20053;-62
2021/10/31 03:32:50;;;;;;;11.60;6.10;;;;;;;9.59;58.49;99886.06;4880427;29;20060;-62
2021/10/31 03:35:22;;;;;;;9.73;5.82;;;;;;;9.30;59.28;99885.84;4880532;29;20116;-61
2021/10/31 03:37:55;;;;;;;11.13;6.40;;;;;;;9.14;59.50;99889.09;4880462;29;20044;-62
2021/10/31 03:40:29;;;;;;;12.40;5.80;;;;;;;9.20;59.75;99894.25;4880375;29;20049;-62
2021/10/31 03:43:01;;;;;;;11.02;6.07;;;;;;;9.17;59.80;99899.31;4880672;29;20053;-61
2021/10/31 03:45:34;;;;;;;10.90;5.95;;;;;;;9.09;60.24;99900.97;4880175;29;20097;-62
2021/10/31 03:48:07;;;;;;;13.80;6.43;;;;;;;8.98;60.64;99897.44;4880356;29;20051;-61
2021/10/31 03:50:39;;;;;;;11.00;6.35;;;;;;;8.84;60.36;99893.94;4880270;29;20049;-61
2021/10/31 03:53:12;;;;;;;11.88;5.80;;;;;;;8.65;61.39;99874.25;4880127;29;20069;-61
2021/10/31 03:55:43;;;;;;;10.32;5.93;;;;;;;8.65;61.08;99902.22;4880173;29;20081;-62
2021/10/31 03:58:16;;;;;;;10.85;5.72;;;;;;;8.62;61.51;99892.88;4880175;29;20083;-61
2021/10/31 04:00:48;;;;;;;12.13;5.82;;;;;;;8.54;61.93;99896.19;4880363;29;20041;-62
2021/10/31 04:03:18;;;;;;;12.88;5.93;;;;;;;8.52;61.95;99895.28;4880013;29;20049;-62
2021/10/31 04:05:50;;;;;;;13.13;6.15;;;;;;;8.47;61.34;99891.88;4880312;29;20045;-61
2021/10/31 04:08:20;;;;;;;13.85;5.47;;;;;;;8.49;61.66;99891.03;4880022;29;20072;-62
2021/10/31 04:10:54;;;;;;;11.77;6.07;;;;;;;8.45;61.42;99889.28;4880006;29;20132;-62
2021/10/31 04:13:24;;;;;;;9.93;5.95;;;;;;;8.42;61.34;99898.59;4879814;29;20499;-62
2021/10/31 04:15:56;;;;;;;12.07;6.55;;;;;;;8.34;61.73;99895.09;4879154;29;20053;-61
2021/10/31 04:18:25;;;;;;;12.10;6.07;;;;;;;8.22;62.09;99892.38;4879967;29;20605;-62
2021/10/31 04:20:56;;;;;;;13.20;5.78;;;;;;;8.01;62.20;99891.25;4879842;29;20057;-62
2021/10/31 04:23:30;;;;;;;10.95;6.30;;;;;;;7.91;62.37;99884.38;4879754;29;20051;-61
2021/10/31 04:26:04;;;;;;;13.95;6.28;;;;;;;7.81;63.21;99897.78;4879847;29;20105;-61
2021/10/31 04:28:39;;;;;;;10.07;5.70;;;;;;;7.63;63.67;99887.34;4880077;29;20144;-61
2021/10/31 04:31:08;;;;;;;11.27;5.75;;;;;;;7.58;64.63;99886.47;4879784;29;20057;-61
2021/10/31 04:33:37;;;;;;;11.35;5.55;;;;;;;7.66;64.38;99887.41;4879907;29;20048;-61
2021/10/31 04:36:10;;;;;;;11.88;5.82;;;;;;;7.61;65.05;99883.94;4879890;29;20109;-61
2021/10/31 04:38:43;;;;;;;12.35;6.47;;;;;;;7.71;64.42;99879.84;4879711;29;20144;-61
2021/10/31 04:41:17;;;;;;;12.95;6.53;;;;;;;7.58;65.41;99883.91;4879992;29;20053;-61
2021/10/31 04:43:46;;;;;;;10.13;6.00;;;;;;;7.60;65.70;99878.84;4879613;29;20053;-62
2021/10/31 04:46:19;;;;;;;12.75;5.80;;;;;;;7.66;65.37;99882.31;4879589;29;20132;-61
2021/10/31 04:48:51;;;;;;;11.38;5.65;;;;;;;7.49;64.88;99878.69;4879650;29;20049;-62
2021/10/31 04:51:24;;;;;;;12.38;5.95;;;;;;;7.45;65.08;99882.00;4879604;29;20049;-62
2021/10/31 04:53:53;;;;;;;11.63;5.93;;;;;;;7.26;66.14;99868.19;4879457;29;20511;-61
2021/10/31 04:56:27;;;;;;;13.73;6.82;;;;;;;7.31;66.22;99886.03;4879549;29;20109;-62
2021/10/31 04:58:57;;;;;;;13.70;6.57;;;;;;;7.45;66.36;99882.00;4882199;29;20067;-62
2021/10/31 05:01:30;;;;;;;12.38;5.82;;;;;;;7.40;65.37;99878.56;4883238;29;20079;-61
2021/10/31 05:04:01;;;;;;;12.68;6.22;;;;;;;7.15;66.69;99876.47;4883129;29;20049;-61
2021/10/31 05:06:33;;;;;;;12.47;6.20;;;;;;;7.29;66.93;99880.09;4883132;29;20045;-61
2021/10/31 05:09:04;;;;;;;14.27;7.38;;;;;;;7.34;66.98;99870.84;4883435;29;20291;-62
2021/10/31 05:11:38;;;;;;;15.05;7.85;;;;;;;7.37;67.15;99879.34;4883035;29;20228;-61
2021/10/31 05:14:07;;;;;;;18.15;8.68;;;;;;;7.48;66.67;99881.22;4883062;29;20052;-62
2021/10/31 05:16:37;;;;;;;19.65;9.95;;;;;;;7.42;66.89;99881.97;4882023;29;20057;-62
2021/10/31 05:19:07;;;;;;;;;;;;;;;7.37;66.78;99883.56;4883332;29;20105;-61
2021/10/31 05:21:43;;;;;;;25.23;11.40;;;;;;;7.45;66.64;99884.56;4882919;29;19924;-61
2021/10/31 05:24:12;;;;;;;27.70;12.32;;;;;;;7.38;67.32;99890.38;4883192;29;20060;-61
2021/10/31 05:26:46;;;;;;;24.70;11.52;;;;;;;7.45;66.82;99882.00;4882738;29;20575;-62
2021/10/31 05:29:16;;;;;;;20.85;9.65;;;;;;;7.63;66.89;99886.53;4883051;29;20580;-62
2021/10/31 05:31:47;;;;;;;;;;;;;;;7.56;67.13;99883.00;4883106;29;20045;-62
2021/10/31 05:34:17;;;;;;;16.58;8.27;;;;;;;7.59;66.75;99885.59;4882873;29;20323;-61
2021/10/31 05:36:49;;;;;;;15.07;7.90;;;;;;;7.54;66.79;99886.38;4882588;29;20080;-61
2021/10/31 05:39:22;;;;;;;12.90;7.38;;;;;;;7.29;66.86;99865.69;4882578;29;20073;-61
2021/10/31 05:41:56;;;;;;;13.30;7.43;;;;;;;7.42;66.91;99882.81;4882879;29;20044;-61
2021/10/31 05:44:31;;;;;;;13.82;7.50;;;;;;;7.37;67.14;99868.34;4882788;29;20057;-62
2021/10/31 05:47:05;;;;;;;18.08;8.57;;;;;;;7.40;67.30;99883.63;4882450;29;20072;-62
2021/10/31 05:49:34;;;;;;;18.38;8.55;;;;;;;7.42;67.29;99887.03;4882364;29;20148;-61
2021/10/31 05:52:08;;;;;;;14.80;7.68;;;;;;;7.51;66.50;99897.31;4882628;29;20049;-61
2021/10/31 05:54:40;;;;;;;13.13;6.75;;;;;;;7.51;65.79;99892.25;4865828;29;20041;-61
2021/10/31 05:57:14;;;;;;;13.75;7.78;;;;;;;7.60;66.28;99892.41;4882522;29;20053;-61
2021/10/31 05:59:43;;;;;;;12.98;7.80;;;;;;;7.67;66.11;99898.41;4882206;29;20052;-61
2021/10/31 06:02:16;;;;;;;15.30;8.40;;;;;;;7.75;65.58;99902.75;4882743;29;20053;-61
2021/10/31 06:04:46;;;;;;;15.55;8.45;;;;;;;7.89;65.10;99906.34;4882150;29;20074;-61
2021/10/31 06:07:23;;;;;;;14.13;8.25;;;;;;;7.91;65.49;99914.00;4882103;29;20056;-61
2021/10/31 06:09:52;;;;;;;14.25;8.13;;;;;;;7.82;65.98;99908.81;4881336;29;20503;-62
2021/10/31 06:12:26;;;;;;;14.90;7.70;;;;;;;7.83;66.10;99906.28;4881885;29;20041;-62
2021/10/31 06:14:59;;;;;;;14.43;7.97;;;;;;;7.84;66.49;99914.75;4881828;29;20049;-62
2021/10/31 06:17:32;;;;;;;18.52;8.07;;;;;;;7.86;66.24;99911.41;4882416;29;20049;-61
2021/10/31 06:20:06;;;;;;;17.52;8.60;;;;;;;7.94;65.99;99914.88;4881842;29;20077;-62
2021/10/31 06:22:39;;;;;;;34.97;18.00;;;;;;;8.09;66.49;99920.19;4881831;29;20045;-62
2021/10/31 06:25:10;;;;;;;62.95;34.88;;;;;;;8.26;65.70;99922.06;4881764;29;20048;-62
2021/10/31 06:27:41;;;;;;;55.83;29.23;;;;;;;8.44;65.62;99923.19;4881945;29;20057;-61
2021/10/31 06:30:11;;;;;;;32.00;18.20;;;;;;;8.50;65.23;99922.41;4882289;29;20056;-61
2021/10/31 06:32:43;;;;;;;22.35;11.60;;;;;;;8.53;65.81;99924.97;4881545;29;20064;-61
2021/10/31 06:35:15;;;;;;;19.10;10.18;;;;;;;8.73;66.20;99926.06;4881560;29;20064;-61
2021/10/31 06:37:49;;;;;;;17.65;9.63;;;;;;;8.91;65.65;99925.38;4881550;29;20053;-62
2021/10/31 06:40:18;;;;;;;18.05;9.15;;;;;;;9.11;65.53;99927.28;4881450;29;20492;-61
2021/10/31 06:42:52;;;;;;;17.17;9.65;;;;;;;9.33;64.97;99936.78;4865014;29;20136;-61
2021/10/31 06:45:25;;;;;;;14.85;9.27;;;;;;;9.53;63.92;99929.31;4881371;29;20053;-61
2021/10/31 06:47:57;;;;;;;22.80;10.57;;;;;;;9.66;63.79;99930.25;4881718;29;20388;-61
2021/10/31 06:50:29;;;;;;;16.83;9.77;;;;;;;9.82;64.09;99921.88;4881267;29;20076;-61
2021/10/31 06:52:59;;;;;;;20.02;10.43;;;;;;;9.80;63.70;99908.25;4881323;29;20089;-61
2021/10/31 06:55:31;;;;;;;20.17;11.82;;;;;;;10.05;63.25;99938.16;4881099;29;20077;-61
2021/10/31 06:58:05;;;;;;;15.98;9.63;;;;;;;10.17;62.92;99934.84;4881429;29;20052;-61
2021/10/31 07:00:37;;;;;;;16.73;8.00;;;;;;;10.27;63.59;99934.06;4881220;29;20582;-61
2021/10/31 07:03:10;;;;;;;12.70;6.80;;;;;;;10.55;63.19;99939.28;4881062;29;20052;-61
2021/10/31 07:05:42;;;;;;;15.45;6.93;;;;;;;10.88;62.34;99937.66;4881386;29;20160;-61
2021/10/31 07:08:15;;;;;;;11.68;6.22;;;;;;;11.02;62.22;99910.44;4881230;29;20040;-61
2021/10/31 07:10:44;;;;;;;12.55;6.85;;;;;;;11.32;61.34;99930.91;4880963;29;20077;-61
2021/10/31 07:13:18;;;;;;;;;;;;;;;11.45;60.82;99922.38;4881334;29;20049;-61
2021/10/31 07:15:50;;;;;;;10.07;6.07;;;;;;;11.60;60.48;99927.47;4880187;29;19924;-62
2021/10/31 07:18:23;;;;;;;11.20;6.15;;;;;;;11.75;59.88;99913.84;4880858;29;20053;-61
2021/10/31 07:20:55;;;;;;;10.23;6.18;;;;;;;11.86;59.87;99925.75;4880867;29;20049;-62
2021/10/31 07:23:28;;;;;;;12.93;7.15;;;;;;;12.05;59.13;99917.19;4880751;29;20088;-61
2021/10/31 07:26:01;;;;;;;12.85;6.63;;;;;;;12.18;58.92;99927.38;4880676;29;20055;-61
2021/10/31 07:28:32;;;;;;;10.43;6.65;;;;;;;12.29;58.65;99916.25;4880616;29;20057;-61
2021/10/31 07:31:07;;;;;;;12.10;6.22;;;;;;;12.43;58.23;99914.47;4880552;29;20053;-61
2021/10/31 07:33:41;;;;;;;12.18;6.40;;;;;;;12.62;57.96;99920.38;4880467;29;20443;-61
2021/10/31 07:36:10;;;;;;;11.35;5.72;;;;;;;12.70;57.52;99919.47;4880503;29;20089;-61
2021/10/31 07:38:42;;;;;;;12.05;6.88;;;;;;;12.67;57.46;99914.34;4880471;29;20086;-61
2021/10/31 07:41:12;;;;;;;10.75;6.18;;;;;;;12.67;57.22;99923.75;4880722;29;20053;-61
2021/10/31 07:43:43;;;;;;;;;;;;;;;12.80;57.59;99910.03;4881090;29;20049;-61
2021/10/31 07:46:18;;;;;;;11.25;6.65;;;;;;;13.00;57.27;99905.63;4880582;29;19972;-61
2021/10/31 07:48:54;;;;;;;11.38;6.63;;;;;;;13.30;56.70;99913.13;4880638;29;20117;-61
2021/10/31 07:51:23;;;;;;;14.00;6.47;;;;;;;13.32;56.38;99879.75;4880495;29;20049;-61
2021/10/31 07:53:56;;;;;;;11.75;7.20;;;;;;;13.35;55.80;99901.09;4880158;29;20516;-61
2021/10/31 07:56:32;;;;;;;10.80;6.57;;;;;;;13.36;56.16;99897.66;4880183;29;20045;-61
2021/10/31 07:59:03;;;;;;;12.95;7.03;;;;;;;13.44;55.84;99895.91;4880124;29;20057;-61
2021/10/31 08:01:35;;;;;;;12.88;6.70;;;;;;;13.41;55.50;99890.78;4880118;29;20514;-61
2021/10/31 08:04:07;;;;;;;11.38;6.00;;;;;;;13.47;55.43;99894.16;4879950;29;20045;-61
2021/10/31 08:06:37;;;;;;;11.38;6.13;;;;;;;13.51;55.00;99895.84;4880529;29;20460;-61
2021/10/31 08:09:09;;;;;;;11.18;6.40;;;;;;;13.66;54.83;99895.69;4880247;29;20067;-61
2021/10/31 08:11:42;;;;;;;9.52;6.47;;;;;;;13.67;54.72;99887.16;4880233;29;20049;-61
2021/10/31 08:14:20;;;;;;;11.57;6.22;;;;;;;13.79;54.87;99889.59;4879891;29;20045;-61
2021/10/31 08:16:52;;;;;;;10.63;6.55;;;;;;;13.76;54.72;99889.63;4879607;29;20100;-61
2021/10/31 08:19:25;;;;;;;10.00;6.68;;;;;;;13.78;54.54;99887.88;4879939;29;20056;-61
2021/10/31 08:21:54;;;;;;;10.23;5.97;;;;;;;13.91;54.52;99881.75;4879142;29;20132;-61
2021/10/31 08:24:24;;;;;;;12.80;6.63;;;;;;;14.12;54.11;99881.50;4880001;29;20131;-61
2021/10/31 08:26:57;;;;;;;8.85;5.55;;;;;;;14.34;53.96;99872.72;4879694;29;20083;-61
2021/10/31 08:29:28;;;;;;;10.23;6.40;;;;;;;14.42;53.47;99878.59;4879662;29;20060;-61
2021/10/31 08:31:57;;;;;;;9.15;5.60;;;;;;;14.50;53.33;99868.22;4879760;29;20148;-61
2021/10/31 08:34:29;;;;;;;9.93;5.57;;;;;;;14.55;53.32;99875.00;4879454;29;20095;-61
2021/10/31 08:36:59;;;;;;;9.45;6.20;;;;;;;14.68;52.76;99867.97;4879637;29;20132;-61
2021/10/31 08:39:32;;;;;;;8.60;6.05;;;;;;;14.84;52.77;99868.59;4879656;29;20412;-61
2021/10/31 08:42:02;;;;;;;9.60;6.40;;;;;;;14.71;52.01;99862.75;4879629;29;20057;-61
2021/10/31 08:44:35;;;;;;;;;;;;;;;14.78;52.10;99865.22;4848355;29;20056;-61
2021/10/31 08:47:08;;;;;;;11.63;6.10;;;;;;;14.88;51.82;99839.38;4879699;29;19924;-61
2021/10/31 08:49:38;;;;;;;8.65;5.25;;;;;;;14.99;51.83;99863.22;4879569;29;20072;-60
2021/10/31 08:52:10;;;;;;;;;;;;;;;14.96;51.20;99865.81;4879909;29;20547;-61
2021/10/31 08:54:39;;;;;;;9.20;6.30;;;;;;;14.98;51.54;99861.50;4879117;29;19971;-61
2021/10/31 08:57:11;;;;;;;;;;;;;;;15.11;51.14;99852.75;4880251;29;20503;-61
2021/10/31 08:59:42;;;;;;;9.27;5.75;;;;;;;15.20;51.10;99852.59;4879450;29;19924;-61
2021/10/31 09:02:11;;;;;;;10.38;6.18;;;;;;;15.35;51.06;99852.34;4879068;29;20080;-61
2021/10/31 09:04:41;;;;;;;10.48;5.95;;;;;;;15.31;50.53;99845.53;4879384;29;20052;-61
2021/10/31 09:07:14;;;;;;;9.95;6.25;;;;;;;15.53;50.14;99846.03;4879336;29;20137;-62
2021/10/31 09:09:44;;;;;;;9.80;6.18;;;;;;;15.61;49.88;99850.19;4879382;29;20045;-61
2021/10/31 09:12:18;;;;;;;8.57;5.88;;;;;;;15.76;49.68;99849.91;4879565;29;20097;-61
2021/10/31 09:14:49;;;;;;;8.68;5.75;;;;;;;15.88;49.52;99844.47;4879240;29;20136;-61
2021/10/31 09:17:19;;;;;;;10.30;5.70;;;;;;;15.93;48.63;99842.66;4879210;29;20053;-61
2021/10/31 09:19:49;;;;;;;9.60;5.45;;;;;;;15.97;48.61;99844.31;4879472;29;20078;-61
2021/10/31 09:22:18;;;;;;;9.57;5.63;;;;;;;15.83;48.38;99830.88;4879478;29;20580;-61
2021/10/31 09:24:51;;;;;;;11.10;5.93;;;;;;;15.84;48.74;99836.84;4879171;29;20052;-61
2021/10/31 09:27:23;;;;;;;9.75;5.60;;;;;;;16.02;48.82;99831.34;4879216;29;20063;-61
2021/10/31 09:29:54;;;;;;;9.95;5.32;;;;;;;16.19;48.32;99837.00;4879139;29;20053;-61
2021/10/31 09:32:49;;;;;;;7.38;5.25;;;;;;;16.36;48.29;99831.50;4879173;29;20067;-61
2021/10/31 09:35:20;;;;;;;7.82;5.28;;;;;;;16.34;47.72;99833.25;4879128;29;22020;-61
2021/10/31 09:37:56;;;;;;;8.75;5.43;;;;;;;16.49;47.77;99822.59;4879092;29;20132;-62
2021/10/31 09:40:26;;;;;;;9.65;5.45;;;;;;;16.39;48.06;99828.84;4879113;29;20064;-61
2021/10/31 09:42:58;;;;;;;11.18;5.50;;;;;;;16.36;47.57;99822.06;4879346;29;20056;-61
2021/10/31 09:45:31;;;;;;;10.02;5.88;;;;;;;16.34;47.45;99818.63;4881048;29;20048;-61
2021/10/31 09:48:02;;;;;;;8.80;5.18;;;;;;;16.44;47.56;99824.44;4882649;29;20049;-61
2021/10/31 09:50:34;;;;;;;8.45;5.53;;;;;;;16.56;47.31;99798.41;4882290;29;20080;-61
2021/10/31 09:53:18;;;;;;;8.75;4.85;;;;;;;16.67;46.96;99796.47;4882299;29;20049;-61
2021/10/31 09:55:50;;;;;;;10.38;5.50;;;;;;;16.63;46.82;99799.97;4882406;29;20081;-61
2021/10/31 09:58:22;;;;;;;7.75;4.85;;;;;;;16.49;46.75;99768.50;4882466;29;20143;-61
2021/10/31 10:00:58;;;;;;;8.48;5.03;;;;;;;16.72;46.58;99794.63;4882467;29;20551;-61
2021/10/31 10:03:38;;;;;;;9.63;5.57;;;;;;;16.86;46.03;99797.72;4882431;29;20053;-61
2021/10/31 10:06:13;;;;;;;6.20;4.07;;;;;;;16.71;46.41;99795.50;4882218;29;20136;-61
2021/10/31 10:08:58;;;;;;;8.77;5.70;;;;;;;16.82;46.31;99790.91;4882104;29;20057;-61
2021/10/31 10:11:29;;;;;;;9.23;5.22;;;;;;;16.87;46.58;99788.25;4881887;29;20083;-61
2021/10/31 10:14:11;;;;;;;10.32;5.30;;;;;;;17.03;46.11;99782.69;4882037;29;20063;-61
2021/10/31 10:16:43;;;;;;;8.95;5.15;;;;;;;17.03;45.94;99790.41;4881638;29;20064;-61
2021/10/31 10:19:21;;;;;;;9.52;5.60;;;;;;;17.18;45.92;99784.03;4881786;29;20048;-61
2021/10/31 10:22:02;;;;;;;10.20;5.30;;;;;;;17.32;45.20;99782.75;4882123;29;20049;-61
2021/10/31 10:24:33;;;;;;;9.10;5.03;;;;;;;17.41;45.55;99785.09;4882109;29;20109;-61
2021/10/31 10:27:05;;;;;;;8.15;4.88;;;;;;;17.33;45.33;99779.28;4881743;29;20051;-61
2021/10/31 10:29:38;;;;;;;9.57;5.72;;;;;;;17.28;45.53;99773.41;4881797;29;20053;-61
2021/10/31 10:32:14;;;;;;;9.32;5.82;;;;;;;17.26;45.08;99770.03;4881907;29;20404;-61
2021/10/31 10:34:51;;;;;;;12.15;5.60;;;;;;;17.17;45.41;99762.53;4882204;29;20048;-61
2021/10/31 10:37:24;;;;;;;10.13;6.00;;;;;;;17.14;45.64;99762.59;4881446;29;20049;-61
2021/10/31 10:40:02;;;;;;;7.95;5.20;;;;;;;17.28;45.75;99755.34;4881841;29;20105;-61
2021/10/31 10:42:37;;;;;;;12.23;6.15;;;;;;;17.29;45.31;99756.19;4881515;29;20488;-61
2021/10/31 10:45:08;;;;;;;9.88;5.78;;;;;;;17.30;45.18;99742.38;4881749;29;20077;-61
2021/10/31 10:47:43;;;;;;;8.20;5.50;;;;;;;17.51;44.97;99740.97;4882016;29;20052;-61
2021/10/31 10:50:17;;;;;;;10.23;6.15;;;;;;;17.62;45.05;99733.81;4881284;29;20061;-61
2021/10/31 10:52:47;;;;;;;12.18;5.80;;;;;;;17.71;44.59;99734.38;4881665;29;20114;-61
2021/10/31 10:55:18;;;;;;;9.57;6.07;;;;;;;17.90;44.26;99724.38;4881170;29;20207;-62
2021/10/31 10:57:51;;;;;;;8.43;5.28;;;;;;;17.83;43.95;99710.78;4881094;29;20109;-61
2021/10/31 11:00:23;;;;;;;9.18;5.85;;;;;;;17.83;43.73;99723.69;4881398;29;20058;-61
2021/10/31 11:03:04;;;;;;;9.90;5.10;;;;;;;17.96;43.57;99719.03;4881382;29;20144;-61
2021/10/31 11:05:36;;;;;;;10.77;5.32;;;;;;;17.93;43.52;99713.94;4881114;29;20045;-61
2021/10/31 11:08:10;;;;;;;8.75;5.05;;;;;;;17.82;43.52;99722.03;4881229;29;20131;-61
2021/10/31 11:10:46;;;;;;;8.25;5.00;;;;;;;17.94;43.76;99710.47;4880901;29;20056;-61
2021/10/31 11:13:18;;;;;;;7.60;4.90;;;;;;;18.13;43.54;99706.44;4880842;29;20056;-61
2021/10/31 11:15:48;;;;;;;7.50;4.95;;;;;;;18.08;43.26;99709.19;4880917;29;20057;-61
2021/10/31 11:18:19;;;;;;;7.88;4.97;;;;;;;18.21;43.26;99699.28;4880831;29;20508;-61
2021/10/31 11:20:50;;;;;;;7.53;5.20;;;;;;;18.08;43.05;99692.81;4880705;29;20053;-62
2021/10/31 11:23:22;;;;;;;9.38;4.88;;;;;;;17.94;43.33;99671.75;4880900;29;20059;-61
2021/10/31 11:26:02;;;;;;;9.25;5.65;;;;;;;18.20;43.32;99679.53;4880661;29;20056;-61
2021/10/31 11:28:35;;;;;;;7.88;4.80;;;;;;;18.26;42.91;99687.06;4880530;29;20060;-61
2021/10/31 11:31:05;;;;;;;7.28;4.75;;;;;;;18.15;42.77;99689.16;4880887;29;20152;-61
2021/10/31 11:33:36;;;;;;;7.60;5.03;;;;;;;18.09;42.97;99673.88;4880437;29;20045;-61
2021/10/31 11:36:06;;;;;;;7.88;4.47;;;;;;;18.05;42.93;99672.25;4880444;29;20053;-61
2021/10/31 11:38:37;;;;;;;8.65;5.70;;;;;;;18.09;43.00;99666.94;4880948;29;20045;-61
2021/10/31 11:41:10;;;;;;;8.27;5.10;;;;;;;18.14;42.86;99666.78;4880356;29;20113;-61
2021/10/31 11:43:48;;;;;;;7.45;4.57;;;;;;;18.19;42.86;99674.41;4880659;29;20563;-61
2021/10/31 11:46:36;;;;;;;6.95;4.50;;;;;;;18.36;42.55;99657.47;4880164;29;20056;-61
2021/10/31 11:49:08;;;;;;;10.65;4.80;;;;;;;18.50;42.07;99659.63;4880246;29;20112;-61
2021/10/31 11:51:43;;;;;;;6.78;4.43;;;;;;;18.28;42.32;99654.31;4880487;29;20083;-61
2021/10/31 11:54:14;;;;;;;8.15;4.95;;;;;;;18.21;42.64;99636.44;4880150;29;20053;-61
2021/10/31 11:56:50;;;;;;;8.45;4.88;;;;;;;18.13;42.37;99649.63;4880395;29;20502;-61
2021/10/31 11:59:21;;;;;;;8.40;5.38;;;;;;;18.11;42.35;99635.91;4880046;29;20060;-61
2021/10/31 12:01:51;;;;;;;10.25;5.85;;;;;;;18.13;42.71;99639.28;4880349;29;20045;-61